createdAt,value
2023-02-16T00:00:30.661Z,5.23
2023-02-16T00:01:30.667Z,5.23
2023-02-16T00:02:30.665Z,5.24
2023-02-16T00:03:30.661Z,5.23
2023-02-16T00:04:30.627Z,5.23
2023-02-16T00:05:30.597Z,5.24
2023-02-16T00:06:30.587Z,5.24
2023-02-16T00:07:30.578Z,5.26
2023-02-16T00:08:30.573Z,5.24
2023-02-16T00:09:30.560Z,5.24
2023-02-16T00:10:30.548Z,5.23
2023-02-16T00:11:30.538Z,5.20
2023-02-16T00:12:30.531Z,5.17
2023-02-16T00:13:30.518Z,5.15
2023-02-16T00:14:30.515Z,5.13
2023-02-16T00:15:30.504Z,5.13
2023-02-16T00:16:30.475Z,5.11
2023-02-16T00:17:30.487Z,5.10
2023-02-16T00:18:30.455Z,5.10
2023-02-16T00:19:30.462Z,5.10
2023-02-16T00:20:30.459Z,5.08
2023-02-16T00:21:30.430Z,5.06
2023-02-16T00:22:30.431Z,5.06
2023-02-16T00:23:30.404Z,5.08
2023-02-16T00:24:30.387Z,5.03
2023-02-16T00:25:30.378Z,5.03
2023-02-16T00:26:30.399Z,5.03
2023-02-16T00:27:30.379Z,5.03
2023-02-16T00:28:30.355Z,5.02
2023-02-16T00:29:30.334Z,5.00
2023-02-16T00:30:30.358Z,4.99
2023-02-16T00:31:30.443Z,4.99
2023-02-16T00:32:30.304Z,4.97
2023-02-16T00:33:30.460Z,4.96
2023-02-16T00:34:30.284Z,4.97
2023-02-16T00:35:30.280Z,4.96
2023-02-16T00:36:30.271Z,4.96
2023-02-16T00:37:30.259Z,4.96
2023-02-16T00:38:30.244Z,4.96
2023-02-16T00:39:30.225Z,4.96
2023-02-16T00:40:30.215Z,4.99
2023-02-16T00:41:30.205Z,4.97
2023-02-16T00:42:30.235Z,4.97
2023-02-16T00:43:30.182Z,4.97
2023-02-16T00:44:30.190Z,4.97
2023-02-16T00:45:30.171Z,4.93
2023-02-16T00:46:30.245Z,4.93
2023-02-16T00:47:30.157Z,4.93
2023-02-16T00:48:30.128Z,4.90
2023-02-16T00:49:30.147Z,4.90
2023-02-16T00:50:30.126Z,4.87
2023-02-16T00:51:30.102Z,4.87
2023-02-16T00:52:30.093Z,4.85
2023-02-16T00:53:30.087Z,4.84
2023-02-16T00:54:31.942Z,4.84
2023-02-16T00:55:30.064Z,4.82
2023-02-16T00:56:30.041Z,4.79
2023-02-16T00:57:30.035Z,4.79
2023-02-16T00:58:30.043Z,4.78
2023-02-16T00:59:30.018Z,4.77
2023-02-16T01:00:30.027Z,4.75
2023-02-16T01:01:30.033Z,4.75
2023-02-16T01:02:29.995Z,4.77
2023-02-16T01:03:29.970Z,4.77
2023-02-16T01:04:30.109Z,4.77
2023-02-16T01:05:29.963Z,4.74
2023-02-16T01:06:29.947Z,4.75
2023-02-16T01:07:29.920Z,4.75
2023-02-16T01:08:29.906Z,4.72
2023-02-16T01:09:29.914Z,4.71
2023-02-16T01:10:29.895Z,4.71
2023-02-16T01:11:29.876Z,4.71
2023-02-16T01:12:29.860Z,4.71
2023-02-16T01:13:29.861Z,4.69
2023-02-16T01:14:29.845Z,4.67
2023-02-16T01:15:29.887Z,4.69
2023-02-16T01:16:29.821Z,4.67
2023-02-16T01:17:29.809Z,4.67
2023-02-16T01:18:29.799Z,4.69
2023-02-16T01:19:29.783Z,4.71
2023-02-16T01:20:29.781Z,4.71
2023-02-16T01:21:29.783Z,4.69
2023-02-16T01:22:29.746Z,4.69
2023-02-16T01:23:29.756Z,4.72
2023-02-16T01:24:29.733Z,4.74
2023-02-16T01:25:29.714Z,4.74
2023-02-16T01:26:29.705Z,4.74
2023-02-16T01:27:29.690Z,4.72
2023-02-16T01:28:29.691Z,4.72
2023-02-16T01:29:29.674Z,4.71
2023-02-16T01:30:29.767Z,4.69
2023-02-16T01:31:29.797Z,4.67
2023-02-16T01:32:29.644Z,4.67
2023-02-16T01:33:29.633Z,4.67
2023-02-16T01:34:29.617Z,4.66
2023-02-16T01:35:29.610Z,4.63
2023-02-16T01:36:29.622Z,4.60
2023-02-16T01:37:29.601Z,4.63
2023-02-16T01:38:29.588Z,4.63
2023-02-16T01:39:29.583Z,4.61
2023-02-16T01:40:29.552Z,4.61
2023-02-16T01:41:29.545Z,4.60
2023-02-16T01:42:29.534Z,4.60
2023-02-16T01:43:29.527Z,4.61
2023-02-16T01:44:29.500Z,4.60
2023-02-16T01:45:29.490Z,4.61
2023-02-16T01:46:29.533Z,4.60
2023-02-16T01:47:29.487Z,4.60
2023-02-16T01:48:29.464Z,4.56
2023-02-16T01:49:29.449Z,4.54
2023-02-16T01:50:29.446Z,4.53
2023-02-16T01:51:29.432Z,4.53
2023-02-16T01:52:29.422Z,4.54
2023-02-16T01:53:29.423Z,4.54
2023-02-16T01:54:29.403Z,4.54
2023-02-16T01:55:29.384Z,4.54
2023-02-16T01:56:29.381Z,4.54
2023-02-16T01:57:29.366Z,4.56
2023-02-16T01:58:29.356Z,4.54
2023-02-16T01:59:29.342Z,4.56
2023-02-16T02:00:29.347Z,4.53
2023-02-16T02:01:29.417Z,4.53
2023-02-16T02:02:29.313Z,4.51
2023-02-16T02:03:29.303Z,4.54
2023-02-16T02:04:29.285Z,4.53
2023-02-16T02:05:29.269Z,4.54
2023-02-16T02:06:29.255Z,4.54
2023-02-16T02:07:29.245Z,4.51
2023-02-16T02:08:29.240Z,4.49
2023-02-16T02:09:29.260Z,4.49
2023-02-16T02:10:29.218Z,4.48
2023-02-16T02:11:29.203Z,4.48
2023-02-16T02:12:29.195Z,4.45
2023-02-16T02:13:29.192Z,4.43
2023-02-16T02:14:29.177Z,4.45
2023-02-16T02:15:29.153Z,4.45
2023-02-16T02:16:29.234Z,4.42
2023-02-16T02:17:29.138Z,4.43
2023-02-16T02:18:29.132Z,4.42
2023-02-16T02:19:29.108Z,4.43
2023-02-16T02:20:29.097Z,4.45
2023-02-16T02:21:29.091Z,4.45
2023-02-16T02:22:29.080Z,4.43
2023-02-16T02:23:29.067Z,4.39
2023-02-16T02:24:29.052Z,4.38
2023-02-16T02:25:29.079Z,4.36
2023-02-16T02:26:29.031Z,4.35
2023-02-16T02:27:29.023Z,4.34
2023-02-16T02:28:29.015Z,4.35
2023-02-16T02:29:29.004Z,4.34
2023-02-16T02:30:29.047Z,4.35
2023-02-16T02:31:29.055Z,4.31
2023-02-16T02:32:28.976Z,4.31
2023-02-16T02:33:30.955Z,4.30
2023-02-16T02:34:28.949Z,4.30
2023-02-16T02:35:28.937Z,4.28
2023-02-16T02:36:28.915Z,4.30
2023-02-16T02:37:28.904Z,4.27
2023-02-16T02:38:28.903Z,4.26
2023-02-16T02:39:28.885Z,4.24
2023-02-16T02:40:28.869Z,4.24
2023-02-16T02:41:28.900Z,4.23
2023-02-16T02:42:28.858Z,4.26
2023-02-16T02:43:28.848Z,4.24
2023-02-16T02:44:28.825Z,4.23
2023-02-16T02:45:28.815Z,4.23
2023-02-16T02:46:28.868Z,4.23
2023-02-16T02:47:28.799Z,4.21
2023-02-16T02:48:28.807Z,4.21
2023-02-16T02:49:28.772Z,4.18
2023-02-16T02:50:28.764Z,4.17
2023-02-16T02:51:28.771Z,4.18
2023-02-16T02:52:28.732Z,4.20
2023-02-16T02:53:28.722Z,4.23
2023-02-16T02:54:28.720Z,4.24
2023-02-16T02:55:28.710Z,4.24
2023-02-16T02:56:28.692Z,4.24
2023-02-16T02:57:28.717Z,4.23
2023-02-16T02:58:28.677Z,4.23
2023-02-16T02:59:28.665Z,4.21
2023-02-16T03:00:28.658Z,4.18
2023-02-16T03:01:28.750Z,4.18
2023-02-16T03:02:28.628Z,4.17
2023-02-16T03:03:28.615Z,4.16
2023-02-16T03:04:28.613Z,4.16
2023-02-16T03:05:28.593Z,4.12
2023-02-16T03:06:28.592Z,4.10
2023-02-16T03:07:28.569Z,4.07
2023-02-16T03:08:28.550Z,4.05
2023-02-16T03:09:28.542Z,4.02
2023-02-16T03:10:28.541Z,4.01
2023-02-16T03:11:28.517Z,4.01
2023-02-16T03:12:28.508Z,4.01
2023-02-16T03:13:28.530Z,4.01
2023-02-16T03:14:28.494Z,4.01
2023-02-16T03:15:28.521Z,4.01
2023-02-16T03:16:28.495Z,4.01
2023-02-16T03:17:28.458Z,3.99
2023-02-16T03:18:28.443Z,3.97
2023-02-16T03:19:28.429Z,3.93
2023-02-16T03:20:28.423Z,3.95
2023-02-16T03:21:28.410Z,3.97
2023-02-16T03:22:28.403Z,3.98
2023-02-16T03:23:28.376Z,3.98
2023-02-16T03:24:28.372Z,3.93
2023-02-16T03:25:28.353Z,3.91
2023-02-16T03:26:28.342Z,3.87
2023-02-16T03:27:28.336Z,3.84
2023-02-16T03:28:28.329Z,3.81
2023-02-16T03:29:28.336Z,3.80
2023-02-16T03:30:28.443Z,3.81
2023-02-16T03:31:28.429Z,3.81
2023-02-16T03:32:28.280Z,3.80
2023-02-16T03:33:28.267Z,3.80
2023-02-16T03:34:28.256Z,3.79
2023-02-16T03:35:28.238Z,3.77
2023-02-16T03:36:28.248Z,3.75
2023-02-16T03:37:28.218Z,3.73
2023-02-16T03:38:28.231Z,3.73
2023-02-16T03:39:28.197Z,3.72
2023-02-16T03:40:28.186Z,3.73
2023-02-16T03:41:28.176Z,3.75
2023-02-16T03:42:28.170Z,3.73
2023-02-16T03:43:28.155Z,3.77
2023-02-16T03:44:28.138Z,3.75
2023-02-16T03:45:28.225Z,3.71
2023-02-16T03:46:28.122Z,3.71
2023-02-16T03:47:28.110Z,3.71
2023-02-16T03:48:28.097Z,3.71
2023-02-16T03:49:28.084Z,3.69
2023-02-16T03:50:28.082Z,3.69
2023-02-16T03:51:28.055Z,3.69
2023-02-16T03:52:28.042Z,3.68
2023-02-16T03:53:28.044Z,3.66
2023-02-16T03:54:28.030Z,3.66
2023-02-16T03:55:28.018Z,3.68
2023-02-16T03:56:28.005Z,3.69
2023-02-16T03:57:28.000Z,3.69
2023-02-16T03:58:27.987Z,3.69
2023-02-16T03:59:27.969Z,3.69
2023-02-16T04:00:27.972Z,3.66
2023-02-16T04:01:27.976Z,3.63
2023-02-16T04:02:28.046Z,3.62
2023-02-16T04:03:27.939Z,3.63
2023-02-16T04:04:28.044Z,3.65
2023-02-16T04:05:27.912Z,3.66
2023-02-16T04:06:27.892Z,3.68
2023-02-16T04:07:29.088Z,3.69
2023-02-16T04:08:27.874Z,3.69
2023-02-16T04:09:27.855Z,3.66
2023-02-16T04:10:27.848Z,3.62
2023-02-16T04:11:27.844Z,3.61
2023-02-16T04:12:27.828Z,3.59
2023-02-16T04:13:27.816Z,3.58
2023-02-16T04:14:27.801Z,3.55
2023-02-16T04:15:27.804Z,3.54
2023-02-16T04:16:27.836Z,3.54
2023-02-16T04:17:27.798Z,3.54
2023-02-16T04:18:27.763Z,3.53
2023-02-16T04:19:27.764Z,3.54
2023-02-16T04:20:27.739Z,3.53
2023-02-16T04:21:27.729Z,3.51
2023-02-16T04:22:27.708Z,3.50
2023-02-16T04:23:27.703Z,3.53
2023-02-16T04:24:27.693Z,3.53
2023-02-16T04:25:27.689Z,3.48
2023-02-16T04:26:27.683Z,3.47
2023-02-16T04:27:27.657Z,3.47
2023-02-16T04:28:27.639Z,3.47
2023-02-16T04:29:27.640Z,3.47
2023-02-16T04:30:27.782Z,3.44
2023-02-16T04:31:27.790Z,3.44
2023-02-16T04:32:27.636Z,3.45
2023-02-16T04:33:27.620Z,3.45
2023-02-16T04:34:27.568Z,3.45
2023-02-16T04:35:27.607Z,3.45
2023-02-16T04:36:27.593Z,3.45
2023-02-16T04:37:27.540Z,3.47
2023-02-16T04:38:27.539Z,3.45
2023-02-16T04:39:27.531Z,3.43
2023-02-16T04:40:27.505Z,3.44
2023-02-16T04:41:27.497Z,3.43
2023-02-16T04:42:27.484Z,3.43
2023-02-16T04:43:27.479Z,3.45
2023-02-16T04:44:27.457Z,3.44
2023-02-16T04:45:27.463Z,3.44
2023-02-16T04:46:27.516Z,3.45
2023-02-16T04:47:27.435Z,3.44
2023-02-16T04:48:27.416Z,3.47
2023-02-16T04:49:27.433Z,3.44
2023-02-16T04:50:27.394Z,3.45
2023-02-16T04:51:27.385Z,3.48
2023-02-16T04:52:27.367Z,3.48
2023-02-16T04:53:27.358Z,3.47
2023-02-16T04:54:27.349Z,3.45
2023-02-16T04:55:27.336Z,3.47
2023-02-16T04:56:27.317Z,3.47
2023-02-16T04:57:27.316Z,3.48
2023-02-16T04:58:27.301Z,3.48
2023-02-16T04:59:27.284Z,3.45
2023-02-16T05:00:27.299Z,3.45
2023-02-16T05:01:27.415Z,3.47
2023-02-16T05:02:27.266Z,3.48
2023-02-16T05:03:27.238Z,3.48
2023-02-16T05:04:27.287Z,3.48
2023-02-16T05:05:27.248Z,3.48
2023-02-16T05:06:27.209Z,3.54
2023-02-16T05:07:27.202Z,3.55
2023-02-16T05:08:27.188Z,3.54
2023-02-16T05:09:27.173Z,3.54
2023-02-16T05:10:27.160Z,3.54
2023-02-16T05:11:27.154Z,3.51
2023-02-16T05:12:27.144Z,3.51
2023-02-16T05:13:27.132Z,3.51
2023-02-16T05:14:27.122Z,3.48
2023-02-16T05:15:27.112Z,3.50
2023-02-16T05:16:27.106Z,3.50
2023-02-16T05:17:27.145Z,3.50
2023-02-16T05:18:27.080Z,3.48
2023-02-16T05:19:27.064Z,3.47
2023-02-16T05:20:27.066Z,3.47
2023-02-16T05:21:27.080Z,3.44
2023-02-16T05:22:27.028Z,3.45
2023-02-16T05:23:27.020Z,3.44
2023-02-16T05:24:28.480Z,3.43
2023-02-16T05:25:27.000Z,3.43
2023-02-16T05:26:26.993Z,3.43
2023-02-16T05:27:26.968Z,3.43
2023-02-16T05:28:27.015Z,3.43
2023-02-16T05:29:26.946Z,3.40
2023-02-16T05:30:26.985Z,3.36
2023-02-16T05:31:27.075Z,3.37
2023-02-16T05:32:26.916Z,3.37
2023-02-16T05:33:26.899Z,3.37
2023-02-16T05:34:26.899Z,3.40
2023-02-16T05:35:26.889Z,3.41
2023-02-16T05:36:26.882Z,3.41
2023-02-16T05:37:26.890Z,3.40
2023-02-16T05:38:26.844Z,3.40
2023-02-16T05:39:26.833Z,3.36
2023-02-16T05:40:26.826Z,3.35
2023-02-16T05:41:26.819Z,3.37
2023-02-16T05:42:26.838Z,3.36
2023-02-16T05:43:26.796Z,3.36
2023-02-16T05:44:26.783Z,3.36
2023-02-16T05:45:26.767Z,3.36
2023-02-16T05:46:26.831Z,3.37
2023-02-16T05:47:26.762Z,3.37
2023-02-16T05:48:26.735Z,3.36
2023-02-16T05:49:26.729Z,3.37
2023-02-16T05:50:26.715Z,3.37
2023-02-16T05:51:26.708Z,3.37
2023-02-16T05:52:26.694Z,3.40
2023-02-16T05:53:26.716Z,3.37
2023-02-16T05:54:26.666Z,3.36
2023-02-16T05:55:26.655Z,3.35
2023-02-16T05:56:28.651Z,3.33
2023-02-16T05:57:26.633Z,3.32
2023-02-16T05:58:26.630Z,3.29
2023-02-16T05:59:26.625Z,3.27
2023-02-16T06:00:26.604Z,3.29
2023-02-16T06:01:26.590Z,3.27
2023-02-16T06:02:28.656Z,3.27
2023-02-16T06:03:26.654Z,3.27
2023-02-16T06:04:28.591Z,3.27
2023-02-16T06:05:26.559Z,3.27
2023-02-16T06:06:26.534Z,3.25
2023-02-16T06:07:26.529Z,3.23
2023-02-16T06:08:26.515Z,3.22
2023-02-16T06:09:26.524Z,3.22
2023-02-16T06:10:26.485Z,3.23
2023-02-16T06:11:26.474Z,3.22
2023-02-16T06:12:26.469Z,3.23
2023-02-16T06:13:26.454Z,3.22
2023-02-16T06:14:26.443Z,3.23
2023-02-16T06:15:26.437Z,3.26
2023-02-16T06:16:26.477Z,3.26
2023-02-16T06:17:26.419Z,3.26
2023-02-16T06:18:26.412Z,3.26
2023-02-16T06:19:26.389Z,3.25
2023-02-16T06:20:26.372Z,3.23
2023-02-16T06:21:26.383Z,3.26
2023-02-16T06:22:26.356Z,3.26
2023-02-16T06:23:26.363Z,3.23
2023-02-16T06:24:28.864Z,3.23
2023-02-16T06:25:26.335Z,3.27
2023-02-16T06:26:26.305Z,3.25
2023-02-16T06:27:28.300Z,3.26
2023-02-16T06:28:26.291Z,3.26
2023-02-16T06:29:26.284Z,3.27
2023-02-16T06:30:26.297Z,3.29
2023-02-16T06:31:26.387Z,3.30
2023-02-16T06:32:26.354Z,3.32
2023-02-16T06:33:26.224Z,3.33
2023-02-16T06:34:26.220Z,3.36
2023-02-16T06:35:26.209Z,3.30
2023-02-16T06:36:26.201Z,3.30
2023-02-16T06:37:26.193Z,3.32
2023-02-16T06:38:26.168Z,3.32
2023-02-16T06:39:26.173Z,3.32
2023-02-16T06:40:26.549Z,3.32
2023-02-16T06:41:26.140Z,3.33
2023-02-16T06:42:26.137Z,3.33
2023-02-16T06:43:26.120Z,3.35
2023-02-16T06:44:26.102Z,3.37
2023-02-16T06:45:26.100Z,3.41
2023-02-16T06:46:26.173Z,3.41
2023-02-16T06:47:26.074Z,3.41
2023-02-16T06:48:26.067Z,3.44
2023-02-16T06:49:27.735Z,3.41
2023-02-16T06:50:26.038Z,3.37
2023-02-16T06:51:26.027Z,3.40
2023-02-16T06:52:26.021Z,3.37
2023-02-16T06:53:25.998Z,3.40
2023-02-16T06:54:25.998Z,3.43
2023-02-16T06:55:25.983Z,3.48
2023-02-16T06:56:25.993Z,3.51
2023-02-16T06:57:25.955Z,3.53
2023-02-16T06:58:25.951Z,3.54
2023-02-16T06:59:25.937Z,3.59
2023-02-16T07:00:25.974Z,3.65
2023-02-16T07:01:26.297Z,3.72
2023-02-16T07:02:25.910Z,3.79
2023-02-16T07:03:25.931Z,3.86
2023-02-16T07:04:25.875Z,3.93
2023-02-16T07:05:25.865Z,4.01
2023-02-16T07:06:25.861Z,4.07
2023-02-16T07:07:25.841Z,4.13
2023-02-16T07:08:25.831Z,4.08
2023-02-16T07:09:25.819Z,4.12
2023-02-16T07:10:25.813Z,4.17
2023-02-16T07:11:25.800Z,4.23
2023-02-16T07:12:25.817Z,4.31
2023-02-16T07:13:25.776Z,4.41
2023-02-16T07:14:25.760Z,4.49
2023-02-16T07:15:25.755Z,4.56
2023-02-16T07:16:25.840Z,4.60
2023-02-16T07:17:25.732Z,4.66
2023-02-16T07:18:25.713Z,4.72
2023-02-16T07:19:25.705Z,4.74
2023-02-16T07:20:25.705Z,4.59
2023-02-16T07:22:32.546Z,4.59
2023-02-16T07:23:32.538Z,4.67
2023-02-16T07:24:32.527Z,4.79
2023-02-16T07:25:33.520Z,4.84
2023-02-16T07:26:32.507Z,4.92
2023-02-16T07:27:32.519Z,4.95
2023-02-16T07:28:32.475Z,4.79
2023-02-16T07:29:32.461Z,4.72
2023-02-16T07:30:32.596Z,4.75
2023-02-16T07:31:32.557Z,4.81
2023-02-16T07:32:32.433Z,4.84
2023-02-16T07:33:32.425Z,4.77
2023-02-16T07:34:32.403Z,4.71
2023-02-16T07:35:32.390Z,4.66
2023-02-16T07:36:32.391Z,4.78
2023-02-16T07:37:32.392Z,4.90
2023-02-16T07:38:32.369Z,5.02
2023-02-16T07:39:32.349Z,5.18
2023-02-16T07:40:32.347Z,5.32
2023-02-16T07:41:32.326Z,5.36
2023-02-16T07:42:32.307Z,5.36
2023-02-16T07:43:32.338Z,5.39
2023-02-16T07:44:32.294Z,5.39
2023-02-16T07:45:32.341Z,5.46
2023-02-16T07:46:33.362Z,5.46
2023-02-16T07:47:32.250Z,5.55
2023-02-16T07:48:32.244Z,5.70
2023-02-16T07:49:32.233Z,5.88
2023-02-16T07:50:32.215Z,6.02
2023-02-16T07:51:32.221Z,6.02
2023-02-16T07:52:32.220Z,6.13
2023-02-16T07:53:32.192Z,6.29
2023-02-16T07:54:32.177Z,6.51
2023-02-16T07:55:32.173Z,6.66
2023-02-16T07:56:32.170Z,6.77
2023-02-16T07:57:32.135Z,6.67
2023-02-16T07:58:32.141Z,6.62
2023-02-16T07:59:32.149Z,6.81
2023-02-16T08:00:32.109Z,7.03
2023-02-16T08:01:32.100Z,7.21
2023-02-16T08:02:32.232Z,7.36
2023-02-16T08:03:32.068Z,7.47
2023-02-16T08:04:32.062Z,7.49
2023-02-16T08:05:32.056Z,7.37
2023-02-16T08:06:32.037Z,7.40
2023-02-16T08:07:32.124Z,7.61
2023-02-16T08:08:32.022Z,7.87
2023-02-16T08:09:32.013Z,7.86
2023-02-16T08:10:32.016Z,7.75
2023-02-16T08:11:31.993Z,7.67
2023-02-16T08:12:31.986Z,7.24
2023-02-16T08:13:31.966Z,7.21
2023-02-16T08:14:31.948Z,7.28
2023-02-16T08:15:32.105Z,7.36
2023-02-16T08:16:31.979Z,7.44
2023-02-16T08:17:31.917Z,7.44
2023-02-16T08:18:31.917Z,7.75
2023-02-16T08:19:31.894Z,7.83
2023-02-16T08:20:57.260Z,8.01
2023-02-16T08:21:31.891Z,8.00
2023-02-16T08:22:31.871Z,7.67
2023-02-16T08:23:32.038Z,7.65
2023-02-16T08:24:31.863Z,7.87
2023-02-16T08:25:31.835Z,7.70
2023-02-16T08:26:31.827Z,7.67
2023-02-16T08:27:31.923Z,7.85
2023-02-16T08:28:31.845Z,7.86
2023-02-16T08:29:31.792Z,7.70
2023-02-16T08:30:31.819Z,7.72
2023-02-16T08:31:31.965Z,7.75
2023-02-16T08:32:31.751Z,7.73
2023-02-16T08:33:31.744Z,7.98
2023-02-16T08:34:31.726Z,8.00
2023-02-16T08:35:31.715Z,8.03
2023-02-16T08:36:31.809Z,8.28
2023-02-16T08:37:31.741Z,8.42
2023-02-16T08:38:31.789Z,8.49
2023-02-16T08:39:31.877Z,8.38
2023-02-16T08:40:31.664Z,8.41
2023-02-16T08:41:31.752Z,8.77
2023-02-16T08:42:31.636Z,8.85
2023-02-16T08:43:31.628Z,8.96
2023-02-16T08:44:31.634Z,9.18
2023-02-16T08:45:31.641Z,9.61
2023-02-16T08:46:31.638Z,9.77
2023-02-16T08:47:31.611Z,9.61
2023-02-16T08:48:31.562Z,9.87
2023-02-16T08:49:31.568Z,9.87
2023-02-16T08:50:31.537Z,10.05
2023-02-16T08:51:31.540Z,10.10
2023-02-16T08:52:31.521Z,10.27
2023-02-16T08:53:31.509Z,10.38
2023-02-16T08:54:31.504Z,10.27
2023-02-16T08:55:31.488Z,10.27
2023-02-16T08:56:31.576Z,10.78
2023-02-16T08:57:31.464Z,11.34
2023-02-16T08:58:31.455Z,11.76
2023-02-16T08:59:31.441Z,11.99
2023-02-16T09:00:31.433Z,12.25
2023-02-16T09:01:31.466Z,12.46
2023-02-16T09:02:31.445Z,12.52
2023-02-16T09:03:31.481Z,12.57
2023-02-16T09:04:31.375Z,12.79
2023-02-16T09:05:31.374Z,12.95
2023-02-16T09:06:31.354Z,13.14
2023-02-16T09:07:31.394Z,13.34
2023-02-16T09:08:31.408Z,13.45
2023-02-16T09:09:31.374Z,13.71
2023-02-16T09:10:31.314Z,13.96
2023-02-16T09:11:31.303Z,14.13
2023-02-16T09:12:31.285Z,14.26
2023-02-16T09:13:31.345Z,14.31
2023-02-16T09:14:31.269Z,14.46
2023-02-16T09:15:31.355Z,14.19
2023-02-16T09:16:31.278Z,14.19
2023-02-16T09:17:31.235Z,14.36
2023-02-16T09:18:31.225Z,14.45
2023-02-16T09:19:31.246Z,14.74
2023-02-16T09:20:31.473Z,15.00
2023-02-16T09:21:31.190Z,15.13
2023-02-16T09:22:31.179Z,15.09
2023-02-16T09:23:31.165Z,15.11
2023-02-16T09:24:31.151Z,15.19
2023-02-16T09:25:31.155Z,15.28
2023-02-16T09:26:31.134Z,15.37
2023-02-16T09:27:31.120Z,15.43
2023-02-16T09:28:31.113Z,15.69
2023-02-16T09:29:31.093Z,16.14
2023-02-16T09:30:31.197Z,16.41
2023-02-16T09:31:31.411Z,16.48
2023-02-16T09:32:31.063Z,16.75
2023-02-16T09:33:31.061Z,16.92
2023-02-16T09:34:31.138Z,16.90
2023-02-16T09:35:31.071Z,16.97
2023-02-16T09:36:31.044Z,17.31
2023-02-16T09:37:31.017Z,17.53
2023-02-16T09:38:31.001Z,17.62
2023-02-16T09:39:30.981Z,17.68
2023-02-16T09:40:30.972Z,17.45
2023-02-16T09:41:30.973Z,17.43
2023-02-16T09:42:30.945Z,17.41
2023-02-16T09:43:31.052Z,17.61
2023-02-16T09:44:30.933Z,17.82
2023-02-16T09:45:30.910Z,18.17
2023-02-16T09:46:30.960Z,18.57
2023-02-16T09:47:30.894Z,18.79
2023-02-16T09:48:30.879Z,18.88
2023-02-16T09:49:30.878Z,18.49
2023-02-16T09:50:52.754Z,18.10
2023-02-16T09:51:34.895Z,17.98
2023-02-16T09:52:30.840Z,17.98
2023-02-16T09:53:30.827Z,18.04
2023-02-16T09:54:30.814Z,18.27
2023-02-16T09:55:30.807Z,18.42
2023-02-16T09:56:30.785Z,18.34
2023-02-16T09:57:30.776Z,18.27
2023-02-16T09:58:30.833Z,18.33
2023-02-16T09:59:30.762Z,18.48
2023-02-16T10:00:30.743Z,18.20
2023-02-16T10:01:30.803Z,17.80
2023-02-16T10:02:30.818Z,16.97
2023-02-16T10:03:30.709Z,16.42
2023-02-16T10:04:30.704Z,15.91
2023-02-16T10:05:30.791Z,15.95
2023-02-16T10:06:30.702Z,16.13
2023-02-16T10:07:30.713Z,16.00
2023-02-16T10:08:30.659Z,15.98
2023-02-16T10:09:30.647Z,15.93
2023-02-16T10:10:30.635Z,15.96
2023-02-16T10:11:30.624Z,16.50
2023-02-16T10:12:30.645Z,16.58
2023-02-16T10:13:30.627Z,16.81
2023-02-16T10:14:30.592Z,16.82
2023-02-16T10:15:30.662Z,16.25
2023-02-16T10:16:30.562Z,16.35
2023-02-16T10:17:30.565Z,16.57
2023-02-16T10:18:30.557Z,16.83
2023-02-16T10:19:30.536Z,16.66
2023-02-16T10:20:30.522Z,16.66
2023-02-16T10:21:30.518Z,16.57
2023-02-16T10:22:30.496Z,16.58
2023-02-16T10:23:30.511Z,16.56
2023-02-16T10:24:30.478Z,16.53
2023-02-16T10:25:30.462Z,16.46
2023-02-16T10:26:30.456Z,16.32
2023-02-16T10:27:30.446Z,16.42
2023-02-16T10:28:30.431Z,16.10
2023-02-16T10:29:30.431Z,15.95
2023-02-16T10:30:30.530Z,15.69
2023-02-16T10:31:30.502Z,16.05
2023-02-16T10:32:30.383Z,16.45
2023-02-16T10:33:30.372Z,16.57
2023-02-16T10:34:30.361Z,16.39
2023-02-16T10:35:30.351Z,16.25
2023-02-16T10:36:30.342Z,16.46
2023-02-16T10:37:30.334Z,16.56
2023-02-16T10:38:30.322Z,16.41
2023-02-16T10:39:30.329Z,16.51
2023-02-16T10:40:30.293Z,16.78
2023-02-16T10:41:30.294Z,16.99
2023-02-16T10:42:30.274Z,17.19
2023-02-16T10:43:30.266Z,17.38
2023-02-16T10:44:30.309Z,17.57
2023-02-16T10:45:30.238Z,17.80
2023-02-16T10:46:30.293Z,18.10
2023-02-16T10:47:30.213Z,18.58
2023-02-16T10:48:30.273Z,18.81
2023-02-16T10:49:30.196Z,18.94
2023-02-16T10:50:30.188Z,19.16
2023-02-16T10:51:30.170Z,19.71
2023-02-16T10:52:30.174Z,19.67
2023-02-16T10:53:30.162Z,19.37
2023-02-16T10:54:30.147Z,19.12
2023-02-16T10:55:30.160Z,18.76
2023-02-16T10:56:30.128Z,18.45
2023-02-16T10:57:30.109Z,18.42
2023-02-16T10:58:30.101Z,18.22
2023-02-16T10:59:30.099Z,18.39
2023-02-16T11:00:30.084Z,18.57
2023-02-16T11:01:30.090Z,18.71
2023-02-16T11:02:30.054Z,18.58
2023-02-16T11:03:30.042Z,18.56
2023-02-16T11:04:30.136Z,18.41
2023-02-16T11:05:30.023Z,18.26
2023-02-16T11:06:30.005Z,18.41
2023-02-16T11:07:30.003Z,18.68
2023-02-16T11:08:30.178Z,18.61
2023-02-16T11:09:29.980Z,18.38
2023-02-16T11:10:29.974Z,18.68
2023-02-16T11:11:29.987Z,18.97
2023-02-16T11:12:29.942Z,18.94
2023-02-16T11:13:29.943Z,19.18
2023-02-16T11:14:29.923Z,19.38
2023-02-16T11:15:29.908Z,19.46
2023-02-16T11:16:29.920Z,19.41
2023-02-16T11:17:29.903Z,19.26
2023-02-16T11:18:29.874Z,18.98
2023-02-16T11:19:29.872Z,18.52
2023-02-16T11:20:29.857Z,18.23
2023-02-16T11:21:29.852Z,17.96
2023-02-16T11:22:29.850Z,17.80
2023-02-16T11:23:30.074Z,17.67
2023-02-16T11:24:29.821Z,17.72
2023-02-16T11:25:29.810Z,17.96
2023-02-16T11:26:29.802Z,17.96
2023-02-16T11:27:29.808Z,17.92
2023-02-16T11:28:32.363Z,17.78
2023-02-16T11:29:29.757Z,17.64
2023-02-16T11:30:29.928Z,17.61
2023-02-16T11:31:30.013Z,17.65
2023-02-16T11:32:29.723Z,17.20
2023-02-16T11:33:29.712Z,17.27
2023-02-16T11:34:29.710Z,17.32
2023-02-16T11:35:29.698Z,17.54
2023-02-16T11:36:29.694Z,17.70
2023-02-16T11:37:29.667Z,17.74
2023-02-16T11:38:29.664Z,17.87
2023-02-16T11:39:29.650Z,17.92
2023-02-16T11:40:29.641Z,18.01
2023-02-16T11:41:29.649Z,17.87
2023-02-16T11:42:29.609Z,17.78
2023-02-16T11:43:29.624Z,17.85
2023-02-16T11:44:29.592Z,17.95
2023-02-16T11:45:31.339Z,17.95
2023-02-16T11:46:29.627Z,18.16
2023-02-16T11:47:29.564Z,18.10
2023-02-16T11:48:29.543Z,18.14
2023-02-16T11:49:29.523Z,18.22
2023-02-16T11:50:29.519Z,18.25
2023-02-16T11:51:29.506Z,18.42
2023-02-16T11:52:29.507Z,18.58
2023-02-16T11:53:29.489Z,18.45
2023-02-16T11:54:29.474Z,18.41
2023-02-16T11:55:29.465Z,18.54
2023-02-16T11:56:29.456Z,18.67
2023-02-16T11:57:29.432Z,18.64
2023-02-16T11:58:29.433Z,18.36
2023-02-16T11:59:29.438Z,17.67
2023-02-16T12:00:29.410Z,17.12
2023-02-16T12:01:29.406Z,16.43
2023-02-16T12:02:29.376Z,16.39
2023-02-16T12:03:31.341Z,16.23
2023-02-16T12:04:29.361Z,16.18
2023-02-16T12:05:29.412Z,16.42
2023-02-16T12:06:29.339Z,16.87
2023-02-16T12:07:29.330Z,17.56
2023-02-16T12:08:29.312Z,18.19
2023-02-16T12:09:31.013Z,18.54
2023-02-16T12:10:29.286Z,18.83
2023-02-16T12:11:29.288Z,19.37
2023-02-16T12:12:29.279Z,19.61
2023-02-16T12:13:29.262Z,19.90
2023-02-16T12:14:29.258Z,19.86
2023-02-16T12:15:29.255Z,19.71
2023-02-16T12:16:29.277Z,19.41
2023-02-16T12:17:29.211Z,19.49
2023-02-16T12:18:29.198Z,19.59
2023-02-16T12:19:29.189Z,19.67
2023-02-16T12:20:29.174Z,19.55
2023-02-16T12:21:29.171Z,19.25
2023-02-16T12:22:29.157Z,19.08
2023-02-16T12:23:29.151Z,19.07
2023-02-16T12:24:29.133Z,18.89
2023-02-16T12:25:29.114Z,18.76
2023-02-16T12:26:29.105Z,18.27
2023-02-16T12:27:29.101Z,18.01
2023-02-16T12:28:29.082Z,17.83
2023-02-16T12:29:29.067Z,17.34
2023-02-16T12:30:29.090Z,17.24
2023-02-16T12:31:29.151Z,17.37
2023-02-16T12:32:29.033Z,17.57
2023-02-16T12:33:29.024Z,17.83
2023-02-16T12:34:29.032Z,18.45
2023-02-16T12:35:28.998Z,18.60
2023-02-16T12:36:29.000Z,18.70
2023-02-16T12:37:28.990Z,18.81
2023-02-16T12:38:28.969Z,19.15
2023-02-16T12:39:28.954Z,19.18
2023-02-16T12:40:28.963Z,19.07
2023-02-16T12:41:28.938Z,19.00
2023-02-16T12:42:28.924Z,18.74
2023-02-16T12:43:28.917Z,18.60
2023-02-16T12:44:28.897Z,18.48
2023-02-16T12:45:28.913Z,18.20
2023-02-16T12:46:28.876Z,17.82
2023-02-16T12:47:28.895Z,17.61
2023-02-16T12:48:28.849Z,17.45
2023-02-16T12:49:28.840Z,17.43
2023-02-16T12:50:28.834Z,17.56
2023-02-16T12:51:28.813Z,17.39
2023-02-16T12:52:28.810Z,17.49
2023-02-16T12:53:28.799Z,17.43
2023-02-16T12:54:28.786Z,17.32
2023-02-16T12:55:28.780Z,17.25
2023-02-16T12:56:28.764Z,17.10
2023-02-16T12:57:30.794Z,16.76
2023-02-16T12:58:28.746Z,16.46
2023-02-16T12:59:28.729Z,16.42
2023-02-16T13:00:28.717Z,16.41
2023-02-16T13:01:28.799Z,16.14
2023-02-16T13:02:28.695Z,15.95
2023-02-16T13:03:28.737Z,15.96
2023-02-16T13:04:28.689Z,16.05
2023-02-16T13:05:28.675Z,16.24
2023-02-16T13:06:28.651Z,16.31
2023-02-16T13:07:28.845Z,16.45
2023-02-16T13:08:28.632Z,16.63
2023-02-16T13:09:28.821Z,16.94
2023-02-16T13:10:28.609Z,17.34